Aviation Digital Data Service (ADDS)

Output produced by TAFs form (1913 UTC 26 July 2014)
found at http://aviationweather.gov/adds/tafs/
 
KFMN 261739Z 2618/2718 28011KT P6SM SCT150 
     FM262100 29012G23KT P6SM SCT100 
     FM270200 32008KT P6SM VCSH BKN120 
     FM270500 VRB05KT P6SM SCT150 
     FM271200 11008KT P6SM SCT150